createdAt,value
2022-10-25T00:01:19.007Z,15.26
2022-10-25T00:03:47.244Z,15.25
2022-10-25T00:06:16.807Z,15.22
2022-10-25T00:08:44.999Z,15.22
2022-10-25T00:11:21.775Z,15.20
2022-10-25T00:13:50.874Z,15.17
2022-10-25T00:16:21.305Z,15.09
2022-10-25T00:18:49.292Z,15.12
2022-10-25T00:21:18.634Z,15.12
2022-10-25T00:23:47.058Z,15.12
2022-10-25T00:26:14.941Z,15.10
2022-10-25T00:28:43.037Z,15.10
2022-10-25T00:31:13.132Z,15.12
2022-10-25T00:33:42.509Z,15.12
2022-10-25T00:36:12.573Z,15.11
2022-10-25T00:38:41.815Z,15.09
2022-10-25T00:41:11.152Z,15.05
2022-10-25T00:43:41.255Z,14.99
2022-10-25T00:46:14.808Z,14.91
2022-10-25T00:48:46.091Z,14.85
2022-10-25T00:51:13.873Z,14.80
2022-10-25T00:53:43.737Z,14.79
2022-10-25T00:56:17.608Z,14.83
2022-10-25T00:58:50.186Z,14.83
2022-10-25T01:01:18.973Z,14.86
2022-10-25T01:03:50.164Z,14.88
2022-10-25T01:06:24.017Z,14.89
2022-10-25T01:08:55.264Z,14.89
2022-10-25T01:11:23.064Z,14.87
2022-10-25T01:13:52.024Z,14.88
2022-10-25T01:16:27.632Z,14.89
2022-10-25T01:19:06.027Z,14.90
2022-10-25T01:21:49.202Z,14.90
2022-10-25T01:24:50.002Z,14.90
2022-10-25T01:27:35.913Z,14.93
2022-10-25T01:30:11.448Z,14.98
2022-10-25T01:32:49.943Z,15.01
2022-10-25T01:35:26.628Z,15.02
2022-10-25T01:38:09.403Z,14.97
2022-10-25T01:40:45.636Z,14.97
2022-10-25T01:43:23.268Z,14.91
2022-10-25T01:46:01.386Z,14.86
2022-10-25T01:48:35.407Z,14.85
2022-10-25T01:51:11.411Z,14.78
2022-10-25T01:53:50.129Z,14.75
2022-10-25T01:56:27.414Z,14.73
2022-10-25T01:59:19.662Z,14.76
2022-10-25T02:02:01.200Z,14.75
2022-10-25T02:04:41.482Z,14.75
2022-10-25T02:07:16.530Z,14.74
2022-10-25T02:09:53.797Z,14.75
2022-10-25T02:12:26.382Z,14.72
2022-10-25T02:15:04.949Z,14.71
2022-10-25T02:17:36.679Z,14.70
2022-10-25T02:20:07.709Z,14.68
2022-10-25T02:22:36.359Z,14.70
2022-10-25T02:25:05.334Z,14.66
2022-10-25T02:27:34.828Z,14.73
2022-10-25T02:30:02.972Z,14.74
2022-10-25T02:32:31.447Z,14.75
2022-10-25T02:34:59.280Z,14.74
2022-10-25T02:37:28.513Z,14.75
2022-10-25T02:39:56.916Z,14.75
2022-10-25T02:42:24.708Z,14.72
2022-10-25T02:44:52.472Z,14.66
2022-10-25T02:47:20.297Z,14.67
2022-10-25T02:49:48.049Z,14.66
2022-10-25T02:52:15.889Z,14.63
2022-10-25T02:54:44.991Z,14.60
2022-10-25T02:57:12.785Z,14.58
2022-10-25T02:59:40.786Z,14.55
2022-10-25T03:02:08.591Z,14.52
2022-10-25T03:04:36.432Z,14.47
2022-10-25T03:07:04.351Z,14.51
2022-10-25T03:09:32.113Z,14.50
2022-10-25T03:12:01.256Z,14.49
2022-10-25T03:14:28.999Z,14.48
2022-10-25T03:16:56.805Z,14.49
2022-10-25T03:19:24.627Z,14.48
2022-10-25T03:21:52.430Z,14.47
2022-10-25T03:24:20.235Z,14.48
2022-10-25T03:26:48.006Z,14.44
2022-10-25T03:29:17.194Z,14.48
2022-10-25T03:31:44.990Z,14.47
2022-10-25T03:34:12.781Z,14.43
2022-10-25T03:36:40.655Z,14.44
2022-10-25T03:39:08.518Z,14.42
2022-10-25T03:41:36.282Z,14.39
2022-10-25T03:44:04.095Z,14.37
2022-10-25T03:46:33.249Z,14.35
2022-10-25T03:49:01.038Z,14.19
2022-10-25T03:51:28.815Z,14.28
2022-10-25T03:53:56.595Z,14.30
2022-10-25T03:56:24.529Z,14.30
2022-10-25T03:58:53.243Z,14.31
2022-10-25T04:01:21.191Z,14.31
2022-10-25T04:03:50.354Z,14.31
2022-10-25T04:06:18.217Z,14.28
2022-10-25T04:08:45.948Z,14.15
2022-10-25T04:11:13.785Z,14.16
2022-10-25T04:13:41.628Z,14.12
2022-10-25T04:16:10.066Z,14.12
2022-10-25T04:18:37.903Z,14.15
2022-10-25T04:21:07.203Z,14.17
2022-10-25T04:23:34.960Z,14.12
2022-10-25T04:26:02.814Z,14.02
2022-10-25T04:28:30.596Z,13.93
2022-10-25T04:30:58.403Z,13.91
2022-10-25T04:33:26.202Z,13.86
2022-10-25T04:35:55.916Z,13.80
2022-10-25T04:38:25.362Z,13.78
2022-10-25T04:40:57.295Z,13.75
2022-10-25T04:43:26.666Z,13.76
2022-10-25T04:45:55.421Z,13.80
2022-10-25T04:48:23.268Z,13.85
2022-10-25T04:50:51.020Z,13.92
2022-10-25T04:53:18.855Z,13.91
2022-10-25T04:55:56.769Z,13.91
2022-10-25T04:58:28.776Z,13.92
2022-10-25T05:01:02.216Z,13.85
2022-10-25T05:03:30.339Z,13.94
2022-10-25T05:06:06.567Z,13.91
2022-10-25T05:08:34.602Z,13.97
2022-10-25T05:11:03.752Z,13.97
2022-10-25T05:13:35.676Z,13.96
2022-10-25T05:16:03.821Z,13.98
2022-10-25T05:18:33.544Z,14.00
2022-10-25T05:21:04.072Z,14.00
2022-10-25T05:23:33.364Z,14.01
2022-10-25T05:26:03.651Z,13.99
2022-10-25T05:28:31.812Z,13.94
2022-10-25T05:31:03.028Z,14.02
2022-10-25T05:33:30.880Z,13.98
2022-10-25T05:36:00.288Z,14.01
2022-10-25T05:38:28.512Z,14.05
2022-10-25T05:40:57.532Z,14.05
2022-10-25T05:43:27.446Z,14.08
2022-10-25T05:46:04.773Z,14.07
2022-10-25T05:48:33.109Z,14.05
2022-10-25T05:51:28.904Z,13.98
2022-10-25T05:54:01.780Z,13.99
2022-10-25T05:56:30.886Z,13.99
2022-10-25T05:59:03.200Z,13.87
2022-10-25T06:01:31.387Z,13.85
2022-10-25T06:03:59.292Z,13.79
2022-10-25T06:06:27.168Z,13.87
2022-10-25T06:08:57.842Z,13.89
2022-10-25T06:11:26.509Z,13.90
2022-10-25T06:13:54.525Z,13.77
2022-10-25T06:16:24.069Z,13.94
2022-10-25T06:18:51.989Z,14.02
2022-10-25T06:21:21.933Z,14.08
2022-10-25T06:23:53.149Z,14.07
2022-10-25T06:26:23.895Z,14.05
2022-10-25T06:28:53.917Z,14.13
2022-10-25T06:31:23.627Z,14.13
2022-10-25T06:33:51.445Z,14.15
2022-10-25T06:36:21.247Z,14.21
2022-10-25T06:38:49.765Z,14.26
2022-10-25T06:41:19.937Z,14.30
2022-10-25T06:43:48.056Z,14.33
2022-10-25T06:46:21.764Z,14.23
2022-10-25T06:48:52.654Z,14.19
2022-10-25T06:51:21.476Z,14.17
2022-10-25T06:53:54.272Z,14.07
2022-10-25T06:56:22.068Z,14.19
2022-10-25T06:58:49.816Z,14.23
2022-10-25T07:01:19.978Z,14.26
2022-10-25T07:03:50.407Z,14.20
2022-10-25T07:06:24.241Z,14.15
2022-10-25T07:08:55.746Z,14.13
2022-10-25T07:11:25.023Z,14.09
2022-10-25T07:13:53.348Z,13.87
2022-10-25T07:16:22.133Z,14.01
2022-10-25T07:18:50.714Z,14.04
2022-10-25T07:21:23.246Z,14.08
2022-10-25T07:23:51.953Z,14.09
2022-10-25T07:26:22.343Z,14.13
2022-10-25T07:28:51.710Z,13.88
2022-10-25T07:31:22.257Z,13.92
2022-10-25T07:33:51.129Z,13.91
2022-10-25T07:36:18.921Z,13.92
2022-10-25T07:38:48.245Z,13.87
2022-10-25T07:41:16.333Z,13.72
2022-10-25T07:43:44.294Z,13.68
2022-10-25T07:46:12.071Z,13.65
2022-10-25T07:48:39.953Z,13.71
2022-10-25T07:51:11.308Z,13.83
2022-10-25T07:53:39.314Z,13.93
2022-10-25T07:56:12.869Z,14.02
2022-10-25T07:58:40.658Z,14.10
2022-10-25T08:01:10.712Z,14.20
2022-10-25T08:03:38.635Z,14.21
2022-10-25T08:06:06.867Z,14.19
2022-10-25T08:08:34.691Z,14.39
2022-10-25T08:11:08.078Z,14.44
2022-10-25T08:13:38.545Z,14.46
2022-10-25T08:16:07.451Z,14.47
2022-10-25T08:18:35.438Z,14.51
2022-10-25T08:21:04.176Z,14.51
2022-10-25T08:23:33.520Z,14.59
2022-10-25T08:26:01.701Z,14.63
2022-10-25T08:28:31.115Z,14.66
2022-10-25T08:31:01.863Z,14.74
2022-10-25T08:33:30.162Z,14.76
2022-10-25T08:36:01.147Z,14.81
2022-10-25T08:38:29.521Z,14.89
2022-10-25T08:41:03.158Z,14.92
2022-10-25T08:44:12.620Z,14.99
2022-10-25T08:46:48.883Z,15.10
2022-10-25T08:49:20.728Z,15.17
2022-10-25T08:51:50.560Z,15.20
2022-10-25T08:54:25.972Z,15.20
2022-10-25T08:57:14.955Z,15.19
2022-10-25T08:59:46.340Z,15.21
2022-10-25T09:02:21.214Z,15.21
2022-10-25T09:04:49.267Z,15.22
2022-10-25T09:07:38.455Z,15.22
2022-10-25T09:10:20.465Z,15.25
2022-10-25T09:12:57.231Z,15.27
2022-10-25T09:15:37.966Z,15.30
2022-10-25T09:18:16.500Z,15.33
2022-10-25T09:20:50.201Z,15.34
2022-10-25T09:23:27.645Z,15.37
2022-10-25T09:26:04.331Z,15.49
2022-10-25T09:28:49.848Z,15.62
2022-10-25T09:31:23.216Z,15.75
2022-10-25T09:34:01.504Z,15.81
2022-10-25T09:36:37.720Z,15.87
2022-10-25T09:39:15.903Z,15.83
2022-10-25T09:41:47.779Z,15.78
2022-10-25T09:44:23.176Z,15.73
2022-10-25T09:46:55.057Z,15.66
2022-10-25T09:49:30.479Z,15.63
2022-10-25T09:52:06.008Z,15.60
2022-10-25T09:54:47.134Z,15.59
2022-10-25T09:57:15.070Z,15.56
2022-10-25T09:59:43.388Z,15.55
2022-10-25T10:02:16.439Z,15.51
2022-10-25T10:04:45.674Z,15.48
2022-10-25T10:07:18.596Z,15.48
2022-10-25T10:09:49.941Z,15.44
2022-10-25T10:12:22.510Z,15.46
2022-10-25T10:14:56.879Z,15.43
2022-10-25T10:17:25.916Z,15.43
2022-10-25T10:20:17.883Z,15.43
2022-10-25T10:25:25.369Z,15.44
2022-10-25T10:27:55.464Z,15.45
2022-10-25T10:30:26.549Z,15.48
2022-10-25T10:32:57.722Z,15.49
2022-10-25T10:35:30.398Z,15.52
2022-10-25T10:38:27.132Z,15.56
2022-10-25T10:40:57.029Z,15.58
2022-10-25T10:43:29.255Z,15.58
2022-10-25T10:46:03.855Z,15.64
2022-10-25T10:48:41.892Z,15.65
2022-10-25T10:51:31.801Z,15.67
2022-10-25T10:54:24.557Z,15.74
2022-10-25T10:57:00.840Z,15.78
2022-10-25T10:59:53.361Z,15.83
2022-10-25T11:02:26.108Z,15.88
2022-10-25T11:04:55.849Z,15.95
2022-10-25T11:07:31.894Z,16.04
2022-10-25T11:10:23.583Z,16.13
2022-10-25T11:13:09.936Z,16.19
2022-10-25T11:15:54.703Z,16.22
2022-10-25T11:18:33.104Z,16.30
2022-10-25T11:21:09.578Z,16.39
2022-10-25T11:23:49.980Z,16.39
2022-10-25T11:26:27.504Z,16.42
2022-10-25T11:29:06.158Z,16.50
2022-10-25T11:31:49.668Z,16.54
2022-10-25T11:34:26.017Z,16.42
2022-10-25T11:37:05.312Z,16.52
2022-10-25T11:39:48.198Z,16.56
2022-10-25T11:42:38.717Z,16.61
2022-10-25T11:45:29.779Z,16.64
2022-10-25T11:48:15.723Z,16.70
2022-10-25T11:50:50.595Z,16.74
2022-10-25T11:53:33.658Z,16.75
2022-10-25T11:56:10.909Z,16.79
2022-10-25T11:58:49.405Z,16.78
2022-10-25T12:01:41.179Z,16.90
2022-10-25T12:04:47.860Z,17.01
2022-10-25T12:07:20.739Z,17.11
2022-10-25T12:10:02.784Z,17.16
2022-10-25T12:12:41.874Z,17.21
2022-10-25T12:15:15.289Z,17.37
2022-10-25T12:17:43.693Z,17.47
2022-10-25T12:20:20.872Z,17.58
2022-10-25T12:22:51.330Z,17.71
2022-10-25T12:25:23.293Z,17.74
2022-10-25T12:28:00.699Z,17.90
2022-10-25T12:30:29.546Z,17.98
2022-10-25T12:33:03.789Z,18.01
2022-10-25T12:35:39.663Z,18.16
2022-10-25T12:38:13.310Z,18.18
2022-10-25T12:40:47.573Z,18.29
2022-10-25T12:43:22.123Z,18.49
2022-10-25T12:46:12.409Z,18.58
2022-10-25T12:49:28.562Z,18.56
2022-10-25T12:52:11.746Z,18.42
2022-10-25T12:55:12.276Z,18.47
2022-10-25T12:57:50.109Z,18.55
2022-10-25T13:03:21.602Z,18.45
2022-10-25T13:06:23.312Z,18.39
2022-10-25T13:08:51.680Z,18.34
2022-10-25T13:11:19.560Z,18.32
2022-10-25T13:13:50.863Z,18.14
2022-10-25T13:16:27.955Z,18.06
2022-10-25T13:19:30.550Z,17.95
2022-10-25T13:22:28.346Z,17.84
2022-10-25T13:24:56.720Z,17.81
2022-10-25T13:27:26.581Z,18.02
2022-10-25T13:30:20.467Z,18.44
2022-10-25T13:33:33.244Z,18.73
2022-10-25T13:36:04.777Z,18.89
2022-10-25T13:38:39.036Z,19.01
2022-10-25T13:41:13.550Z,19.21
2022-10-25T13:43:59.290Z,19.40
2022-10-25T13:46:32.384Z,19.52
2022-10-25T13:49:03.083Z,19.52
2022-10-25T13:51:33.211Z,19.50
2022-10-25T13:54:08.412Z,19.41
2022-10-25T13:56:50.507Z,19.56
2022-10-25T13:59:36.589Z,19.59
2022-10-25T14:02:18.985Z,19.55
2022-10-25T14:04:48.520Z,19.46
2022-10-25T14:07:46.592Z,19.47
2022-10-25T14:10:29.062Z,19.50
2022-10-25T14:13:08.167Z,19.56
2022-10-25T14:15:46.396Z,19.68
2022-10-25T14:18:18.717Z,19.75
2022-10-25T14:20:50.271Z,19.73
2022-10-25T14:23:22.769Z,19.65
2022-10-25T14:25:54.129Z,19.58
2022-10-25T14:28:26.783Z,19.54
2022-10-25T14:30:57.306Z,19.33
2022-10-25T14:33:30.620Z,19.14
2022-10-25T14:36:09.791Z,19.23
2022-10-25T14:38:50.666Z,19.33
2022-10-25T14:41:22.855Z,19.17
2022-10-25T14:43:50.681Z,19.00
2022-10-25T14:46:19.930Z,18.87
2022-10-25T14:48:49.932Z,18.72
2022-10-25T14:51:22.814Z,18.58
2022-10-25T14:53:54.058Z,18.51
2022-10-25T14:56:25.001Z,18.56
2022-10-25T14:58:53.034Z,18.70
2022-10-25T15:01:23.322Z,18.78
2022-10-25T15:03:54.144Z,18.73
2022-10-25T15:06:25.964Z,18.73
2022-10-25T15:09:16.184Z,18.67
2022-10-25T15:12:04.676Z,18.63
2022-10-25T15:14:33.368Z,18.41
2022-10-25T15:17:05.071Z,18.36
2022-10-25T15:19:32.919Z,18.10
2022-10-25T15:22:10.740Z,17.85
2022-10-25T15:24:45.890Z,17.67
2022-10-25T15:27:27.831Z,17.48
2022-10-25T15:29:56.037Z,17.33
2022-10-25T15:32:26.337Z,17.19
2022-10-25T15:34:55.713Z,17.09
2022-10-25T15:37:26.257Z,17.00
2022-10-25T15:39:55.386Z,16.88
2022-10-25T15:42:25.325Z,16.80
2022-10-25T15:44:53.238Z,16.70
2022-10-25T15:47:29.823Z,16.61
2022-10-25T15:49:58.203Z,16.57
2022-10-25T15:52:27.667Z,16.50
2022-10-25T15:54:55.816Z,16.48
2022-10-25T15:57:23.985Z,16.42
2022-10-25T15:59:51.805Z,16.36
2022-10-25T16:02:22.719Z,16.30
2022-10-25T16:04:50.535Z,16.25
2022-10-25T16:07:18.337Z,16.23
2022-10-25T16:09:47.553Z,16.22
2022-10-25T16:12:21.359Z,16.20
2022-10-25T16:14:51.116Z,16.17
2022-10-25T16:17:18.903Z,16.13
2022-10-25T16:19:46.763Z,16.06
2022-10-25T16:22:14.637Z,15.99
2022-10-25T16:24:42.428Z,15.99
2022-10-25T16:27:13.255Z,15.88
2022-10-25T16:29:41.745Z,15.90
2022-10-25T16:32:09.607Z,15.82
2022-10-25T16:34:38.169Z,15.82
2022-10-25T16:37:09.178Z,15.76
2022-10-25T16:39:39.255Z,15.71
2022-10-25T16:42:29.243Z,15.67
2022-10-25T16:44:57.158Z,15.70
2022-10-25T16:47:25.007Z,15.68
2022-10-25T16:49:52.878Z,15.66
2022-10-25T16:52:21.698Z,15.63
2022-10-25T16:54:49.521Z,15.62
2022-10-25T16:57:17.323Z,15.60
2022-10-25T16:59:46.605Z,15.58
2022-10-25T17:02:19.785Z,15.56
2022-10-25T17:04:48.598Z,15.52
2022-10-25T17:07:16.729Z,15.44
2022-10-25T17:09:44.536Z,15.45
2022-10-25T17:12:13.171Z,15.33
2022-10-25T17:14:40.976Z,15.40
2022-10-25T17:17:10.210Z,15.38
2022-10-25T17:19:38.046Z,15.35
2022-10-25T17:22:05.923Z,15.30
2022-10-25T17:24:37.267Z,15.28
2022-10-25T17:29:38.459Z,15.18
2022-10-25T17:32:07.400Z,15.14
2022-10-25T17:34:36.648Z,15.12
2022-10-25T17:37:04.549Z,15.11
2022-10-25T17:39:32.336Z,15.10
2022-10-25T17:42:00.185Z,15.08
2022-10-25T17:44:28.081Z,14.98
2022-10-25T17:46:58.336Z,14.99
2022-10-25T17:49:28.748Z,14.97
2022-10-25T17:51:57.856Z,14.97
2022-10-25T17:54:25.628Z,14.96
2022-10-25T17:56:56.345Z,14.94
2022-10-25T17:59:24.108Z,14.94
2022-10-25T18:01:51.930Z,14.96
2022-10-25T18:04:19.839Z,15.01
2022-10-25T18:06:47.760Z,15.02
2022-10-25T18:09:17.458Z,15.05
2022-10-25T18:11:45.966Z,15.04
2022-10-25T18:14:13.796Z,15.02
2022-10-25T18:16:41.584Z,14.98
2022-10-25T18:19:13.401Z,14.95
2022-10-25T18:21:41.685Z,14.88
2022-10-25T18:24:12.291Z,14.81
2022-10-25T18:26:41.600Z,14.84
2022-10-25T18:29:09.878Z,14.82
2022-10-25T18:31:37.783Z,14.77
2022-10-25T18:34:05.752Z,14.78
2022-10-25T18:36:33.584Z,14.73
2022-10-25T18:39:01.448Z,14.70
2022-10-25T18:41:31.340Z,14.67
2022-10-25T18:44:02.332Z,14.62
2022-10-25T18:46:31.871Z,14.59
2022-10-25T18:48:59.802Z,14.57
2022-10-25T18:51:29.232Z,14.56
2022-10-25T18:53:58.012Z,14.50
2022-10-25T18:56:26.804Z,14.45
2022-10-25T18:58:56.661Z,14.43
2022-10-25T19:01:28.520Z,14.45
2022-10-25T19:03:58.054Z,14.45
2022-10-25T19:06:26.361Z,14.45
2022-10-25T19:08:54.511Z,14.45
2022-10-25T19:11:22.600Z,14.44
2022-10-25T19:13:53.991Z,14.42
2022-10-25T19:16:21.872Z,14.41
2022-10-25T19:18:51.521Z,14.32
2022-10-25T19:21:20.281Z,14.29
2022-10-25T19:23:48.363Z,14.18
2022-10-25T19:26:17.795Z,14.10
2022-10-25T19:28:45.683Z,14.10
2022-10-25T19:31:15.770Z,14.07
2022-10-25T19:33:46.129Z,14.01
2022-10-25T19:36:16.193Z,13.99
2022-10-25T19:38:45.179Z,14.02
2022-10-25T19:41:16.697Z,14.01
2022-10-25T19:43:44.926Z,14.06
2022-10-25T19:46:13.621Z,14.03
2022-10-25T19:48:41.494Z,14.02
2022-10-25T19:51:10.513Z,14.03
2022-10-25T19:53:40.240Z,14.02
2022-10-25T19:56:10.904Z,13.96
2022-10-25T19:58:38.695Z,13.87
2022-10-25T20:01:08.396Z,13.77
2022-10-25T20:03:37.342Z,13.65
2022-10-25T20:06:07.654Z,13.55
2022-10-25T20:08:36.503Z,13.49
2022-10-25T20:11:06.743Z,13.33
2022-10-25T20:13:35.021Z,13.32
2022-10-25T20:16:03.316Z,13.22
2022-10-25T20:18:34.057Z,13.15
2022-10-25T20:21:03.950Z,13.09
2022-10-25T20:23:31.803Z,13.02
2022-10-25T20:25:59.657Z,12.98
2022-10-25T20:28:30.054Z,12.98
2022-10-25T20:31:03.080Z,13.13
2022-10-25T20:33:31.091Z,13.16
2022-10-25T20:36:02.575Z,13.24
2022-10-25T20:38:30.657Z,13.39
2022-10-25T20:41:03.946Z,13.46
2022-10-25T20:43:33.496Z,13.54
2022-10-25T20:46:02.041Z,13.55
2022-10-25T20:48:30.146Z,13.60
2022-10-25T20:50:58.349Z,13.48
2022-10-25T20:53:26.138Z,13.48
2022-10-25T20:55:54.092Z,13.53
2022-10-25T20:58:23.040Z,13.62
2022-10-25T21:00:54.574Z,13.71
2022-10-25T21:03:22.406Z,13.78
2022-10-25T21:05:52.703Z,13.70
2022-10-25T21:08:21.250Z,13.64
2022-10-25T21:10:53.705Z,13.66
2022-10-25T21:13:21.553Z,13.68
2022-10-25T21:15:50.284Z,13.59
2022-10-25T21:18:20.046Z,13.60
2022-10-25T21:20:49.267Z,13.54
2022-10-25T21:23:17.049Z,13.41
2022-10-25T21:25:44.795Z,13.37
2022-10-25T21:28:12.649Z,13.38
2022-10-25T21:30:40.415Z,13.34
2022-10-25T21:33:08.181Z,13.46
2022-10-25T21:35:37.305Z,13.47
2022-10-25T21:38:05.056Z,13.50
2022-10-25T21:40:32.859Z,13.41
2022-10-25T21:43:00.624Z,13.36
2022-10-25T21:45:28.421Z,13.27
2022-10-25T21:47:56.169Z,13.14
2022-10-25T21:50:23.904Z,13.10
2022-10-25T21:52:54.972Z,13.07
2022-10-25T21:55:22.799Z,13.01
2022-10-25T21:57:54.153Z,12.88
2022-10-25T22:00:22.433Z,12.83
2022-10-25T22:02:50.246Z,12.86
2022-10-25T22:05:18.029Z,12.88
2022-10-25T22:07:45.991Z,12.89
2022-10-25T22:10:15.293Z,12.91
2022-10-25T22:12:43.046Z,12.96
2022-10-25T22:15:11.068Z,12.99
2022-10-25T22:17:38.888Z,13.03
2022-10-25T22:20:08.055Z,13.05
2022-10-25T22:22:35.835Z,13.06
2022-10-25T22:25:03.620Z,13.07
2022-10-25T22:27:32.802Z,12.99
2022-10-25T22:30:00.697Z,12.96
2022-10-25T22:32:28.636Z,12.94
2022-10-25T22:34:57.409Z,12.92
2022-10-25T22:37:25.179Z,12.91
2022-10-25T22:39:52.941Z,12.89
2022-10-25T22:42:20.788Z,12.87
2022-10-25T22:44:49.919Z,12.76
2022-10-25T22:47:17.664Z,12.84
2022-10-25T22:49:45.424Z,12.82
2022-10-25T22:52:13.726Z,12.82
2022-10-25T22:54:41.536Z,12.84
2022-10-25T22:57:09.293Z,12.79
2022-10-25T22:59:37.078Z,12.76
2022-10-25T23:02:06.199Z,12.72
2022-10-25T23:04:34.009Z,12.69
2022-10-25T23:07:01.885Z,12.62
2022-10-25T23:09:29.744Z,12.54
2022-10-25T23:11:57.592Z,12.51
2022-10-25T23:14:25.384Z,12.47
2022-10-25T23:16:53.131Z,12.44
2022-10-25T23:19:22.329Z,12.44
2022-10-25T23:21:50.150Z,12.41
2022-10-25T23:24:18.058Z,12.40
2022-10-25T23:26:45.804Z,12.42
2022-10-25T23:29:13.952Z,12.44
2022-10-25T23:31:41.706Z,12.44
2022-10-25T23:34:10.605Z,12.36
2022-10-25T23:36:39.816Z,12.32
2022-10-25T23:39:08.943Z,12.35
2022-10-25T23:41:37.112Z,12.36
2022-10-25T23:44:05.443Z,12.35
2022-10-25T23:46:33.221Z,12.34
2022-10-25T23:49:00.983Z,12.11
2022-10-25T23:51:28.737Z,11.95
2022-10-25T23:53:57.863Z,11.85
2022-10-25T23:56:25.653Z,11.77
2022-10-25T23:58:54.048Z,11.79
